Denmark, Georgia
Current Conditions -  °F | °C
As of 9:55 AM on Thursday 30 Oct 2014 (Local Time) from KCWV Reporting Station
Broken Clouds Broken Clouds  
Wind Chill: 61°   Ceiling: 1000
Heat Index: 61°   Visibility: 10mi
Dew Point: 57°   Wind: 0mph
Humidity: 88%   Direction: NA
Pressure: 30.02"   Gusts: NA
Location:  32.2794°N, 81.623°W
Report Text: KCWV 301355Z AUTO 00000KT 10SM BKN010 16/14 A3002 RMK AO2
Loading
Personal Weather Stations






























Interactive Weather Map
Tropical Storm Tracking
New forecast layout! Learn more

10-Day Weather Forecast

Advertisements
Track Severe Weather on mobile